sensor_id;sensor_type;location;lat;lon;timestamp;P1;durP1;ratioP1;P2;durP2;ratioP2
19049;SDS011;9657;45.940;12.840;2023-03-04T00:02:20;14.97;;;11.57;;
19049;SDS011;9657;45.940;12.840;2023-03-04T00:04:48;17.43;;;12.27;;
19049;SDS011;9657;45.940;12.840;2023-03-04T00:07:17;16.33;;;11.03;;
19049;SDS011;9657;45.940;12.840;2023-03-04T00:09:44;18.60;;;12.00;;
19049;SDS011;9657;45.940;12.840;2023-03-04T00:12:11;16.10;;;11.10;;
19049;SDS011;9657;45.940;12.840;2023-03-04T00:14:39;15.83;;;12.07;;
19049;SDS011;9657;45.940;12.840;2023-03-04T00:17:06;15.53;;;11.50;;
19049;SDS011;9657;45.940;12.840;2023-03-04T00:19:34;16.60;;;12.53;;
19049;SDS011;9657;45.940;12.840;2023-03-04T00:22:01;18.17;;;11.27;;
19049;SDS011;9657;45.940;12.840;2023-03-04T00:24:29;18.43;;;11.93;;
19049;SDS011;9657;45.940;12.840;2023-03-04T00:26:56;14.70;;;11.63;;
19049;SDS011;9657;45.940;12.840;2023-03-04T00:29:24;16.37;;;11.77;;
19049;SDS011;9657;45.940;12.840;2023-03-04T00:31:51;15.63;;;11.80;;
19049;SDS011;9657;45.940;12.840;2023-03-04T00:34:18;14.00;;;10.73;;
19049;SDS011;9657;45.940;12.840;2023-03-04T00:36:45;17.83;;;12.00;;
19049;SDS011;9657;45.940;12.840;2023-03-04T00:39:12;13.90;;;10.83;;
19049;SDS011;9657;45.940;12.840;2023-03-04T00:41:40;16.10;;;11.03;;
19049;SDS011;9657;45.940;12.840;2023-03-04T00:44:08;16.27;;;11.57;;
19049;SDS011;9657;45.940;12.840;2023-03-04T00:46:35;17.33;;;11.70;;
19049;SDS011;9657;45.940;12.840;2023-03-04T00:49:02;14.97;;;11.33;;
19049;SDS011;9657;45.940;12.840;2023-03-04T00:51:29;14.03;;;10.63;;
19049;SDS011;9657;45.940;12.840;2023-03-04T00:53:56;14.17;;;10.57;;
19049;SDS011;9657;45.940;12.840;2023-03-04T00:56:23;15.50;;;11.40;;
19049;SDS011;9657;45.940;12.840;2023-03-04T00:58:51;15.13;;;10.97;;
19049;SDS011;9657;45.940;12.840;2023-03-04T01:01:18;16.17;;;11.33;;
19049;SDS011;9657;45.940;12.840;2023-03-04T01:03:45;16.23;;;10.87;;
19049;SDS011;9657;45.940;12.840;2023-03-04T01:06:12;14.20;;;11.00;;
19049;SDS011;9657;45.940;12.840;2023-03-04T01:08:39;16.03;;;11.70;;
19049;SDS011;9657;45.940;12.840;2023-03-04T01:11:07;12.80;;;10.07;;
19049;SDS011;9657;45.940;12.840;2023-03-04T01:13:34;15.50;;;11.20;;
19049;SDS011;9657;45.940;12.840;2023-03-04T01:16:02;14.60;;;11.10;;
19049;SDS011;9657;45.940;12.840;2023-03-04T01:18:29;13.80;;;10.17;;
19049;SDS011;9657;45.940;12.840;2023-03-04T01:20:57;13.43;;;10.80;;
19049;SDS011;9657;45.940;12.840;2023-03-04T01:23:24;13.50;;;10.70;;
19049;SDS011;9657;45.940;12.840;2023-03-04T01:25:51;15.30;;;11.33;;
19049;SDS011;9657;45.940;12.840;2023-03-04T01:28:18;14.03;;;10.77;;
19049;SDS011;9657;45.940;12.840;2023-03-04T01:30:45;14.47;;;10.33;;
19049;SDS011;9657;45.940;12.840;2023-03-04T01:33:14;17.07;;;11.43;;
19049;SDS011;9657;45.940;12.840;2023-03-04T01:35:41;15.17;;;10.63;;
19049;SDS011;9657;45.940;12.840;2023-03-04T01:38:08;12.27;;;9.57;;
19049;SDS011;9657;45.940;12.840;2023-03-04T01:40:35;14.73;;;9.57;;
19049;SDS011;9657;45.940;12.840;2023-03-04T01:43:03;13.13;;;10.20;;
19049;SDS011;9657;45.940;12.840;2023-03-04T01:45:30;14.07;;;10.67;;
19049;SDS011;9657;45.940;12.840;2023-03-04T01:47:59;11.10;;;9.60;;
19049;SDS011;9657;45.940;12.840;2023-03-04T01:50:28;13.40;;;9.97;;
19049;SDS011;9657;45.940;12.840;2023-03-04T01:52:58;12.23;;;9.47;;
19049;SDS011;9657;45.940;12.840;2023-03-04T01:55:25;13.60;;;10.50;;
19049;SDS011;9657;45.940;12.840;2023-03-04T01:57:53;11.77;;;9.70;;
19049;SDS011;9657;45.940;12.840;2023-03-04T02:03:03;13.17;;;10.43;;
19049;SDS011;9657;45.940;12.840;2023-03-04T02:05:51;14.17;;;9.67;;
19049;SDS011;9657;45.940;12.840;2023-03-04T02:08:20;13.00;;;9.80;;
19049;SDS011;9657;45.940;12.840;2023-03-04T02:10:49;13.27;;;9.53;;
19049;SDS011;9657;45.940;12.840;2023-03-04T02:13:17;11.60;;;9.63;;
19049;SDS011;9657;45.940;12.840;2023-03-04T02:15:44;12.23;;;9.77;;
19049;SDS011;9657;45.940;12.840;2023-03-04T02:18:14;14.57;;;10.30;;
19049;SDS011;9657;45.940;12.840;2023-03-04T02:20:44;13.07;;;9.97;;
19049;SDS011;9657;45.940;12.840;2023-03-04T02:23:22;12.33;;;9.90;;
19049;SDS011;9657;45.940;12.840;2023-03-04T02:26:07;14.47;;;9.23;;
19049;SDS011;9657;45.940;12.840;2023-03-04T02:28:38;13.73;;;9.67;;
19049;SDS011;9657;45.940;12.840;2023-03-04T02:31:06;13.03;;;9.50;;
19049;SDS011;9657;45.940;12.840;2023-03-04T02:33:40;13.77;;;10.00;;
19049;SDS011;9657;45.940;12.840;2023-03-04T02:36:07;14.43;;;9.93;;
19049;SDS011;9657;45.940;12.840;2023-03-04T02:38:35;12.33;;;9.80;;
19049;SDS011;9657;45.940;12.840;2023-03-04T02:41:02;14.20;;;10.17;;
19049;SDS011;9657;45.940;12.840;2023-03-04T02:43:32;13.43;;;9.43;;
19049;SDS011;9657;45.940;12.840;2023-03-04T02:45:59;13.63;;;9.47;;
19049;SDS011;9657;45.940;12.840;2023-03-04T02:48:26;11.80;;;9.40;;
19049;SDS011;9657;45.940;12.840;2023-03-04T02:50:53;11.77;;;8.80;;
19049;SDS011;9657;45.940;12.840;2023-03-04T02:53:20;15.87;;;9.60;;
19049;SDS011;9657;45.940;12.840;2023-03-04T02:55:49;14.17;;;9.37;;
19049;SDS011;9657;45.940;12.840;2023-03-04T02:58:16;12.53;;;9.03;;
19049;SDS011;9657;45.940;12.840;2023-03-04T03:00:44;11.90;;;8.60;;
19049;SDS011;9657;45.940;12.840;2023-03-04T03:03:12;10.23;;;8.50;;
19049;SDS011;9657;45.940;12.840;2023-03-04T03:05:39;13.57;;;9.50;;
19049;SDS011;9657;45.940;12.840;2023-03-04T03:08:06;11.60;;;8.37;;
19049;SDS011;9657;45.940;12.840;2023-03-04T03:10:33;11.80;;;8.80;;
19049;SDS011;9657;45.940;12.840;2023-03-04T03:13:00;11.43;;;8.97;;
19049;SDS011;9657;45.940;12.840;2023-03-04T03:15:27;11.93;;;8.73;;
19049;SDS011;9657;45.940;12.840;2023-03-04T03:17:56;10.33;;;8.50;;
19049;SDS011;9657;45.940;12.840;2023-03-04T03:20:23;13.73;;;9.40;;
19049;SDS011;9657;45.940;12.840;2023-03-04T03:22:50;12.03;;;8.77;;
19049;SDS011;9657;45.940;12.840;2023-03-04T03:25:17;10.77;;;8.87;;
19049;SDS011;9657;45.940;12.840;2023-03-04T03:27:44;11.70;;;9.03;;
19049;SDS011;9657;45.940;12.840;2023-03-04T03:30:12;11.07;;;8.83;;
19049;SDS011;9657;45.940;12.840;2023-03-04T03:32:40;11.57;;;8.50;;
19049;SDS011;9657;45.940;12.840;2023-03-04T03:35:08;10.20;;;7.90;;
19049;SDS011;9657;45.940;12.840;2023-03-04T03:37:36;10.63;;;8.47;;
19049;SDS011;9657;45.940;12.840;2023-03-04T03:40:03;10.63;;;8.10;;
19049;SDS011;9657;45.940;12.840;2023-03-04T03:42:31;10.03;;;7.80;;
19049;SDS011;9657;45.940;12.840;2023-03-04T03:44:58;10.50;;;7.97;;
19049;SDS011;9657;45.940;12.840;2023-03-04T03:47:25;14.03;;;8.43;;
19049;SDS011;9657;45.940;12.840;2023-03-04T03:49:52;12.10;;;8.63;;
19049;SDS011;9657;45.940;12.840;2023-03-04T03:52:21;9.77;;;8.20;;
19049;SDS011;9657;45.940;12.840;2023-03-04T03:54:48;11.20;;;8.83;;
19049;SDS011;9657;45.940;12.840;2023-03-04T03:57:15;11.03;;;8.17;;
19049;SDS011;9657;45.940;12.840;2023-03-04T03:59:42;12.27;;;8.73;;
19049;SDS011;9657;45.940;12.840;2023-03-04T04:02:09;9.20;;;7.30;;
19049;SDS011;9657;45.940;12.840;2023-03-04T04:04:36;11.33;;;8.30;;
19049;SDS011;9657;45.940;12.840;2023-03-04T04:07:04;10.80;;;8.43;;
19049;SDS011;9657;45.940;12.840;2023-03-04T04:09:32;10.67;;;7.83;;
19049;SDS011;9657;45.940;12.840;2023-03-04T04:11:59;11.57;;;8.20;;
19049;SDS011;9657;45.940;12.840;2023-03-04T04:14:26;9.93;;;7.63;;
19049;SDS011;9657;45.940;12.840;2023-03-04T04:16:53;10.53;;;8.30;;
19049;SDS011;9657;45.940;12.840;2023-03-04T04:19:20;10.13;;;7.70;;
19049;SDS011;9657;45.940;12.840;2023-03-04T04:21:47;10.63;;;6.93;;
19049;SDS011;9657;45.940;12.840;2023-03-04T04:24:15;10.17;;;7.90;;
19049;SDS011;9657;45.940;12.840;2023-03-04T04:26:43;10.60;;;7.87;;
19049;SDS011;9657;45.940;12.840;2023-03-04T04:29:12;9.80;;;7.80;;
19049;SDS011;9657;45.940;12.840;2023-03-04T04:31:40;9.67;;;7.60;;
19049;SDS011;9657;45.940;12.840;2023-03-04T04:34:07;10.43;;;7.47;;
19049;SDS011;9657;45.940;12.840;2023-03-04T04:36:34;10.50;;;7.43;;
19049;SDS011;9657;45.940;12.840;2023-03-04T04:39:02;9.77;;;7.80;;
19049;SDS011;9657;45.940;12.840;2023-03-04T04:41:30;9.87;;;6.57;;
19049;SDS011;9657;45.940;12.840;2023-03-04T04:44:01;12.73;;;7.17;;
19049;SDS011;9657;45.940;12.840;2023-03-04T04:46:28;10.27;;;7.10;;
19049;SDS011;9657;45.940;12.840;2023-03-04T04:48:55;8.87;;;7.10;;
19049;SDS011;9657;45.940;12.840;2023-03-04T04:51:22;9.30;;;7.37;;
19049;SDS011;9657;45.940;12.840;2023-03-04T04:53:49;8.67;;;6.53;;
19049;SDS011;9657;45.940;12.840;2023-03-04T04:56:17;9.20;;;6.30;;
19049;SDS011;9657;45.940;12.840;2023-03-04T04:58:46;10.00;;;6.70;;
19049;SDS011;9657;45.940;12.840;2023-03-04T05:01:15;10.70;;;7.00;;
19049;SDS011;9657;45.940;12.840;2023-03-04T05:03:42;10.13;;;7.20;;
19049;SDS011;9657;45.940;12.840;2023-03-04T05:06:09;8.20;;;6.63;;
19049;SDS011;9657;45.940;12.840;2023-03-04T05:08:38;9.47;;;6.60;;
19049;SDS011;9657;45.940;12.840;2023-03-04T05:11:05;10.00;;;6.43;;
19049;SDS011;9657;45.940;12.840;2023-03-04T05:13:33;10.20;;;6.83;;
19049;SDS011;9657;45.940;12.840;2023-03-04T05:16:00;8.90;;;6.73;;
19049;SDS011;9657;45.940;12.840;2023-03-04T05:18:29;8.07;;;6.23;;
19049;SDS011;9657;45.940;12.840;2023-03-04T05:20:57;7.43;;;6.63;;
19049;SDS011;9657;45.940;12.840;2023-03-04T05:23:25;8.27;;;6.23;;
19049;SDS011;9657;45.940;12.840;2023-03-04T05:25:53;8.73;;;5.93;;
19049;SDS011;9657;45.940;12.840;2023-03-04T05:28:21;8.17;;;6.57;;
19049;SDS011;9657;45.940;12.840;2023-03-04T05:30:48;9.57;;;6.80;;
19049;SDS011;9657;45.940;12.840;2023-03-04T05:33:15;7.87;;;6.03;;
19049;SDS011;9657;45.940;12.840;2023-03-04T05:35:45;7.97;;;5.67;;
19049;SDS011;9657;45.940;12.840;2023-03-04T05:38:13;8.27;;;6.63;;
19049;SDS011;9657;45.940;12.840;2023-03-04T05:40:42;8.43;;;6.20;;
19049;SDS011;9657;45.940;12.840;2023-03-04T05:43:10;10.43;;;7.20;;
19049;SDS011;9657;45.940;12.840;2023-03-04T05:45:38;8.73;;;6.40;;
19049;SDS011;9657;45.940;12.840;2023-03-04T05:48:05;7.03;;;6.33;;
19049;SDS011;9657;45.940;12.840;2023-03-04T05:50:33;9.37;;;6.27;;
19049;SDS011;9657;45.940;12.840;2023-03-04T05:53:02;7.70;;;6.33;;
19049;SDS011;9657;45.940;12.840;2023-03-04T05:55:29;9.20;;;6.03;;
19049;SDS011;9657;45.940;12.840;2023-03-04T05:57:56;7.47;;;5.60;;
19049;SDS011;9657;45.940;12.840;2023-03-04T06:00:23;7.17;;;5.47;;
19049;SDS011;9657;45.940;12.840;2023-03-04T06:02:51;7.70;;;6.00;;
19049;SDS011;9657;45.940;12.840;2023-03-04T06:05:18;10.03;;;6.43;;
19049;SDS011;9657;45.940;12.840;2023-03-04T06:07:45;9.47;;;5.90;;
19049;SDS011;9657;45.940;12.840;2023-03-04T06:10:15;7.40;;;5.77;;
19049;SDS011;9657;45.940;12.840;2023-03-04T06:12:43;8.20;;;5.90;;
19049;SDS011;9657;45.940;12.840;2023-03-04T06:15:10;7.63;;;5.90;;
19049;SDS011;9657;45.940;12.840;2023-03-04T06:17:38;6.23;;;5.23;;
19049;SDS011;9657;45.940;12.840;2023-03-04T06:20:06;8.00;;;6.13;;
19049;SDS011;9657;45.940;12.840;2023-03-04T06:22:35;7.17;;;5.50;;
19049;SDS011;9657;45.940;12.840;2023-03-04T06:25:02;6.63;;;5.60;;
19049;SDS011;9657;45.940;12.840;2023-03-04T06:27:31;7.70;;;5.63;;
19049;SDS011;9657;45.940;12.840;2023-03-04T06:29:58;8.00;;;5.70;;
19049;SDS011;9657;45.940;12.840;2023-03-04T06:32:25;8.50;;;5.57;;
19049;SDS011;9657;45.940;12.840;2023-03-04T06:34:53;6.77;;;5.07;;
19049;SDS011;9657;45.940;12.840;2023-03-04T06:37:20;8.73;;;5.40;;
19049;SDS011;9657;45.940;12.840;2023-03-04T06:39:47;7.10;;;5.20;;
19049;SDS011;9657;45.940;12.840;2023-03-04T06:42:14;7.77;;;5.53;;
19049;SDS011;9657;45.940;12.840;2023-03-04T06:44:43;8.53;;;5.17;;
19049;SDS011;9657;45.940;12.840;2023-03-04T06:47:10;7.00;;;5.27;;
19049;SDS011;9657;45.940;12.840;2023-03-04T06:49:37;7.60;;;5.50;;
19049;SDS011;9657;45.940;12.840;2023-03-04T06:52:04;8.07;;;5.27;;
19049;SDS011;9657;45.940;12.840;2023-03-04T06:54:31;6.87;;;5.23;;
19049;SDS011;9657;45.940;12.840;2023-03-04T06:56:58;8.80;;;5.13;;
19049;SDS011;9657;45.940;12.840;2023-03-04T06:59:25;6.67;;;4.60;;
19049;SDS011;9657;45.940;12.840;2023-03-04T07:01:53;7.80;;;5.60;;
19049;SDS011;9657;45.940;12.840;2023-03-04T07:04:20;8.37;;;4.80;;
19049;SDS011;9657;45.940;12.840;2023-03-04T07:06:48;8.13;;;5.20;;
19049;SDS011;9657;45.940;12.840;2023-03-04T07:09:15;5.47;;;4.60;;
19049;SDS011;9657;45.940;12.840;2023-03-04T07:11:42;5.57;;;4.80;;
19049;SDS011;9657;45.940;12.840;2023-03-04T07:14:09;6.30;;;4.97;;
19049;SDS011;9657;45.940;12.840;2023-03-04T07:16:37;7.50;;;5.10;;
19049;SDS011;9657;45.940;12.840;2023-03-04T07:19:05;7.23;;;5.07;;
19049;SDS011;9657;45.940;12.840;2023-03-04T07:21:32;6.80;;;4.93;;
19049;SDS011;9657;45.940;12.840;2023-03-04T07:23:59;7.03;;;4.50;;
19049;SDS011;9657;45.940;12.840;2023-03-04T07:26:26;9.73;;;4.77;;
19049;SDS011;9657;45.940;12.840;2023-03-04T07:28:53;8.57;;;4.87;;
19049;SDS011;9657;45.940;12.840;2023-03-04T07:31:23;11.67;;;5.60;;
19049;SDS011;9657;45.940;12.840;2023-03-04T07:33:54;9.47;;;4.97;;
19049;SDS011;9657;45.940;12.840;2023-03-04T07:36:23;7.80;;;4.70;;
19049;SDS011;9657;45.940;12.840;2023-03-04T07:38:51;7.70;;;5.90;;
19049;SDS011;9657;45.940;12.840;2023-03-04T07:41:19;7.43;;;5.17;;
19049;SDS011;9657;45.940;12.840;2023-03-04T07:43:48;7.67;;;4.90;;
19049;SDS011;9657;45.940;12.840;2023-03-04T07:46:15;9.10;;;5.10;;
19049;SDS011;9657;45.940;12.840;2023-03-04T07:48:42;6.23;;;4.30;;
19049;SDS011;9657;45.940;12.840;2023-03-04T07:51:10;5.53;;;4.70;;
19049;SDS011;9657;45.940;12.840;2023-03-04T07:53:40;8.13;;;5.03;;
19049;SDS011;9657;45.940;12.840;2023-03-04T07:56:10;7.27;;;4.40;;
19049;SDS011;9657;45.940;12.840;2023-03-04T07:58:38;7.10;;;4.93;;
19049;SDS011;9657;45.940;12.840;2023-03-04T08:01:09;7.90;;;5.07;;
19049;SDS011;9657;45.940;12.840;2023-03-04T08:03:36;7.50;;;4.40;;
19049;SDS011;9657;45.940;12.840;2023-03-04T08:06:04;8.17;;;4.27;;
19049;SDS011;9657;45.940;12.840;2023-03-04T08:08:32;7.53;;;4.83;;
19049;SDS011;9657;45.940;12.840;2023-03-04T08:11:02;7.70;;;4.63;;
19049;SDS011;9657;45.940;12.840;2023-03-04T08:13:29;7.70;;;4.83;;
19049;SDS011;9657;45.940;12.840;2023-03-04T08:15:57;7.03;;;4.57;;
19049;SDS011;9657;45.940;12.840;2023-03-04T08:18:24;6.10;;;4.37;;
19049;SDS011;9657;45.940;12.840;2023-03-04T08:20:51;6.63;;;5.00;;
19049;SDS011;9657;45.940;12.840;2023-03-04T08:23:18;6.90;;;5.00;;
19049;SDS011;9657;45.940;12.840;2023-03-04T08:25:45;7.90;;;4.40;;
19049;SDS011;9657;45.940;12.840;2023-03-04T08:28:14;6.43;;;4.37;;
19049;SDS011;9657;45.940;12.840;2023-03-04T08:30:42;5.13;;;4.30;;
19049;SDS011;9657;45.940;12.840;2023-03-04T08:33:09;7.17;;;4.57;;
19049;SDS011;9657;45.940;12.840;2023-03-04T08:35:37;5.73;;;4.70;;
19049;SDS011;9657;45.940;12.840;2023-03-04T08:38:05;6.53;;;4.73;;
19049;SDS011;9657;45.940;12.840;2023-03-04T08:40:32;6.97;;;5.27;;
19049;SDS011;9657;45.940;12.840;2023-03-04T08:42:59;7.43;;;4.73;;
19049;SDS011;9657;45.940;12.840;2023-03-04T08:45:27;5.13;;;4.20;;
19049;SDS011;9657;45.940;12.840;2023-03-04T08:47:54;6.03;;;4.67;;
19049;SDS011;9657;45.940;12.840;2023-03-04T08:50:21;5.73;;;4.33;;
19049;SDS011;9657;45.940;12.840;2023-03-04T08:52:48;7.40;;;4.60;;
19049;SDS011;9657;45.940;12.840;2023-03-04T08:55:15;6.43;;;4.83;;
19049;SDS011;9657;45.940;12.840;2023-03-04T08:57:43;6.93;;;4.33;;
19049;SDS011;9657;45.940;12.840;2023-03-04T09:00:10;6.33;;;4.33;;
19049;SDS011;9657;45.940;12.840;2023-03-04T09:02:39;5.73;;;4.53;;
19049;SDS011;9657;45.940;12.840;2023-03-04T09:05:07;7.23;;;4.70;;
19049;SDS011;9657;45.940;12.840;2023-03-04T09:07:34;4.50;;;3.97;;
19049;SDS011;9657;45.940;12.840;2023-03-04T09:10:01;9.07;;;4.50;;
19049;SDS011;9657;45.940;12.840;2023-03-04T09:12:28;5.67;;;4.87;;
19049;SDS011;9657;45.940;12.840;2023-03-04T09:14:55;6.63;;;4.27;;
19049;SDS011;9657;45.940;12.840;2023-03-04T09:17:23;6.93;;;4.57;;
19049;SDS011;9657;45.940;12.840;2023-03-04T09:19:51;6.40;;;4.73;;
19049;SDS011;9657;45.940;12.840;2023-03-04T09:22:18;5.97;;;4.50;;
19049;SDS011;9657;45.940;12.840;2023-03-04T09:24:45;9.50;;;5.00;;
19049;SDS011;9657;45.940;12.840;2023-03-04T09:27:12;6.10;;;4.50;;
19049;SDS011;9657;45.940;12.840;2023-03-04T09:29:39;8.10;;;5.33;;
19049;SDS011;9657;45.940;12.840;2023-03-04T09:32:08;8.50;;;5.53;;
19049;SDS011;9657;45.940;12.840;2023-03-04T09:34:35;6.73;;;4.77;;
19049;SDS011;9657;45.940;12.840;2023-03-04T09:37:03;5.67;;;4.77;;
19049;SDS011;9657;45.940;12.840;2023-03-04T09:39:30;9.67;;;4.93;;
19049;SDS011;9657;45.940;12.840;2023-03-04T09:41:58;7.43;;;5.00;;
19049;SDS011;9657;45.940;12.840;2023-03-04T09:44:27;7.77;;;4.93;;
19049;SDS011;9657;45.940;12.840;2023-03-04T09:46:57;8.07;;;5.37;;
19049;SDS011;9657;45.940;12.840;2023-03-04T09:49:26;7.43;;;4.50;;
19049;SDS011;9657;45.940;12.840;2023-03-04T09:51:56;5.10;;;4.60;;
19049;SDS011;9657;45.940;12.840;2023-03-04T09:54:51;5.67;;;4.47;;
19049;SDS011;9657;45.940;12.840;2023-03-04T09:57:28;6.33;;;4.20;;
19049;SDS011;9657;45.940;12.840;2023-03-04T10:00:10;7.83;;;4.83;;
19049;SDS011;9657;45.940;12.840;2023-03-04T10:02:44;5.90;;;4.53;;
19049;SDS011;9657;45.940;12.840;2023-03-04T10:05:25;7.10;;;4.97;;
19049;SDS011;9657;45.940;12.840;2023-03-04T10:07:55;6.87;;;4.93;;
19049;SDS011;9657;45.940;12.840;2023-03-04T10:10:27;5.73;;;4.53;;
19049;SDS011;9657;45.940;12.840;2023-03-04T10:12:58;6.33;;;4.67;;
19049;SDS011;9657;45.940;12.840;2023-03-04T10:15:29;6.70;;;4.37;;
19049;SDS011;9657;45.940;12.840;2023-03-04T10:18:01;5.83;;;4.33;;
19049;SDS011;9657;45.940;12.840;2023-03-04T10:20:38;6.50;;;5.00;;
19049;SDS011;9657;45.940;12.840;2023-03-04T10:23:17;7.17;;;5.10;;
19049;SDS011;9657;45.940;12.840;2023-03-04T10:25:48;4.40;;;4.00;;
19049;SDS011;9657;45.940;12.840;2023-03-04T10:28:19;6.37;;;4.17;;
19049;SDS011;9657;45.940;12.840;2023-03-04T10:30:50;6.53;;;4.43;;
19049;SDS011;9657;45.940;12.840;2023-03-04T10:33:24;6.40;;;4.67;;
19049;SDS011;9657;45.940;12.840;2023-03-04T10:35:55;6.97;;;5.40;;
19049;SDS011;9657;45.940;12.840;2023-03-04T10:38:28;5.53;;;4.10;;
19049;SDS011;9657;45.940;12.840;2023-03-04T10:40:59;5.20;;;3.90;;
19049;SDS011;9657;45.940;12.840;2023-03-04T10:43:26;4.90;;;3.97;;
19049;SDS011;9657;45.940;12.840;2023-03-04T10:45:54;5.73;;;4.33;;
19049;SDS011;9657;45.940;12.840;2023-03-04T10:48:23;4.37;;;3.83;;
19049;SDS011;9657;45.940;12.840;2023-03-04T10:50:51;7.07;;;4.50;;
19049;SDS011;9657;45.940;12.840;2023-03-04T10:53:29;5.60;;;4.10;;
19049;SDS011;9657;45.940;12.840;2023-03-04T10:56:00;6.93;;;4.50;;
19049;SDS011;9657;45.940;12.840;2023-03-04T10:58:27;6.37;;;4.37;;
19049;SDS011;9657;45.940;12.840;2023-03-04T11:00:58;7.47;;;4.37;;
19049;SDS011;9657;45.940;12.840;2023-03-04T11:03:31;6.87;;;4.27;;
19049;SDS011;9657;45.940;12.840;2023-03-04T11:06:03;6.20;;;4.33;;
19049;SDS011;9657;45.940;12.840;2023-03-04T11:08:32;5.40;;;4.03;;
19049;SDS011;9657;45.940;12.840;2023-03-04T11:11:00;7.30;;;4.97;;
19049;SDS011;9657;45.940;12.840;2023-03-04T11:13:28;5.50;;;4.13;;
19049;SDS011;9657;45.940;12.840;2023-03-04T11:15:57;4.60;;;3.90;;
19049;SDS011;9657;45.940;12.840;2023-03-04T11:18:27;7.27;;;4.10;;
19049;SDS011;9657;45.940;12.840;2023-03-04T11:21:01;6.37;;;4.13;;
19049;SDS011;9657;45.940;12.840;2023-03-04T11:23:31;6.93;;;4.50;;
19049;SDS011;9657;45.940;12.840;2023-03-04T11:26:02;5.30;;;4.10;;
19049;SDS011;9657;45.940;12.840;2023-03-04T11:28:36;7.57;;;4.17;;
19049;SDS011;9657;45.940;12.840;2023-03-04T11:31:11;7.70;;;4.77;;
19049;SDS011;9657;45.940;12.840;2023-03-04T11:33:41;7.77;;;4.33;;
19049;SDS011;9657;45.940;12.840;2023-03-04T11:36:20;8.63;;;4.60;;
19049;SDS011;9657;45.940;12.840;2023-03-04T11:38:55;6.30;;;3.97;;
19049;SDS011;9657;45.940;12.840;2023-03-04T11:41:25;5.60;;;4.67;;
19049;SDS011;9657;45.940;12.840;2023-03-04T11:43:56;5.83;;;4.03;;
19049;SDS011;9657;45.940;12.840;2023-03-04T11:46:31;6.53;;;4.33;;
19049;SDS011;9657;45.940;12.840;2023-03-04T11:49:23;9.93;;;4.23;;
19049;SDS011;9657;45.940;12.840;2023-03-04T11:52:15;6.70;;;4.33;;
19049;SDS011;9657;45.940;12.840;2023-03-04T11:54:58;5.30;;;3.93;;
19049;SDS011;9657;45.940;12.840;2023-03-04T11:57:33;6.33;;;4.40;;
19049;SDS011;9657;45.940;12.840;2023-03-04T12:00:21;8.30;;;3.97;;
19049;SDS011;9657;45.940;12.840;2023-03-04T12:03:01;5.57;;;4.30;;
19049;SDS011;9657;45.940;12.840;2023-03-04T12:05:42;5.80;;;4.57;;
19049;SDS011;9657;45.940;12.840;2023-03-04T12:08:21;6.00;;;4.23;;
19049;SDS011;9657;45.940;12.840;2023-03-04T12:11:00;6.03;;;4.30;;
19049;SDS011;9657;45.940;12.840;2023-03-04T12:13:38;6.00;;;3.93;;
19049;SDS011;9657;45.940;12.840;2023-03-04T12:19:17;5.10;;;4.20;;
19049;SDS011;9657;45.940;12.840;2023-03-04T12:21:58;6.87;;;4.47;;
19049;SDS011;9657;45.940;12.840;2023-03-04T12:27:48;5.47;;;4.20;;
19049;SDS011;9657;45.940;12.840;2023-03-04T12:30:39;5.10;;;4.07;;
19049;SDS011;9657;45.940;12.840;2023-03-04T12:33:16;7.97;;;4.90;;
19049;SDS011;9657;45.940;12.840;2023-03-04T12:35:59;7.47;;;4.77;;
19049;SDS011;9657;45.940;12.840;2023-03-04T12:38:35;7.73;;;4.67;;
19049;SDS011;9657;45.940;12.840;2023-03-04T12:41:20;9.17;;;4.80;;
19049;SDS011;9657;45.940;12.840;2023-03-04T12:43:53;6.90;;;3.87;;
19049;SDS011;9657;45.940;12.840;2023-03-04T12:46:30;13.03;;;4.80;;
19049;SDS011;9657;45.940;12.840;2023-03-04T12:49:13;10.47;;;4.37;;
19049;SDS011;9657;45.940;12.840;2023-03-04T12:51:52;7.53;;;4.57;;
19049;SDS011;9657;45.940;12.840;2023-03-04T12:54:28;9.07;;;4.33;;
19049;SDS011;9657;45.940;12.840;2023-03-04T12:56:59;11.17;;;4.27;;
19049;SDS011;9657;45.940;12.840;2023-03-04T12:59:31;12.20;;;4.70;;
19049;SDS011;9657;45.940;12.840;2023-03-04T13:02:09;6.43;;;4.50;;
19049;SDS011;9657;45.940;12.840;2023-03-04T13:04:56;8.33;;;5.07;;
19049;SDS011;9657;45.940;12.840;2023-03-04T13:07:32;6.77;;;4.83;;
19049;SDS011;9657;45.940;12.840;2023-03-04T13:10:09;8.43;;;4.70;;
19049;SDS011;9657;45.940;12.840;2023-03-04T13:12:45;6.53;;;4.80;;
19049;SDS011;9657;45.940;12.840;2023-03-04T13:15:16;5.83;;;4.17;;
19049;SDS011;9657;45.940;12.840;2023-03-04T13:17:54;6.47;;;4.40;;
19049;SDS011;9657;45.940;12.840;2023-03-04T13:20:23;9.00;;;5.23;;
19049;SDS011;9657;45.940;12.840;2023-03-04T13:22:58;7.30;;;4.97;;
19049;SDS011;9657;45.940;12.840;2023-03-04T13:25:29;8.20;;;4.97;;
19049;SDS011;9657;45.940;12.840;2023-03-04T13:28:11;10.07;;;4.90;;
19049;SDS011;9657;45.940;12.840;2023-03-04T13:33:47;6.67;;;4.77;;
19049;SDS011;9657;45.940;12.840;2023-03-04T13:36:28;6.07;;;4.60;;
19049;SDS011;9657;45.940;12.840;2023-03-04T13:39:23;7.33;;;5.13;;
19049;SDS011;9657;45.940;12.840;2023-03-04T13:41:57;5.50;;;4.20;;
19049;SDS011;9657;45.940;12.840;2023-03-04T13:47:31;9.13;;;6.50;;
19049;SDS011;9657;45.940;12.840;2023-03-04T13:50:26;12.33;;;6.50;;
19049;SDS011;9657;45.940;12.840;2023-03-04T13:53:01;10.17;;;7.07;;
19049;SDS011;9657;45.940;12.840;2023-03-04T13:56:01;7.70;;;6.57;;
19049;SDS011;9657;45.940;12.840;2023-03-04T13:58:31;12.83;;;7.10;;
19049;SDS011;9657;45.940;12.840;2023-03-04T14:01:00;10.90;;;7.37;;
19049;SDS011;9657;45.940;12.840;2023-03-04T14:03:27;11.27;;;8.37;;
19049;SDS011;9657;45.940;12.840;2023-03-04T14:06:10;11.57;;;8.60;;
19049;SDS011;9657;45.940;12.840;2023-03-04T14:08:41;11.73;;;7.87;;
19049;SDS011;9657;45.940;12.840;2023-03-04T14:11:10;17.00;;;7.77;;
19049;SDS011;9657;45.940;12.840;2023-03-04T14:13:40;9.40;;;7.43;;
19049;SDS011;9657;45.940;12.840;2023-03-04T14:16:07;10.93;;;7.87;;
19049;SDS011;9657;45.940;12.840;2023-03-04T14:18:35;12.17;;;7.93;;
19049;SDS011;9657;45.940;12.840;2023-03-04T14:21:02;12.57;;;8.17;;
19049;SDS011;9657;45.940;12.840;2023-03-04T14:23:33;11.13;;;7.87;;
19049;SDS011;9657;45.940;12.840;2023-03-04T14:26:09;10.43;;;7.73;;
19049;SDS011;9657;45.940;12.840;2023-03-04T14:28:44;10.70;;;7.80;;
19049;SDS011;9657;45.940;12.840;2023-03-04T14:31:16;10.13;;;8.03;;
19049;SDS011;9657;45.940;12.840;2023-03-04T14:33:46;13.10;;;9.70;;
19049;SDS011;9657;45.940;12.840;2023-03-04T14:36:15;17.83;;;10.40;;
19049;SDS011;9657;45.940;12.840;2023-03-04T14:38:46;14.70;;;10.17;;
19049;SDS011;9657;45.940;12.840;2023-03-04T14:41:18;17.17;;;9.73;;
19049;SDS011;9657;45.940;12.840;2023-03-04T14:43:52;11.97;;;8.77;;
19049;SDS011;9657;45.940;12.840;2023-03-04T14:46:28;12.90;;;9.63;;
19049;SDS011;9657;45.940;12.840;2023-03-04T14:48:59;15.37;;;10.07;;
19049;SDS011;9657;45.940;12.840;2023-03-04T14:51:31;16.33;;;9.57;;
19049;SDS011;9657;45.940;12.840;2023-03-04T14:54:04;12.20;;;8.47;;
19049;SDS011;9657;45.940;12.840;2023-03-04T14:56:32;10.63;;;8.30;;
19049;SDS011;9657;45.940;12.840;2023-03-04T14:59:00;15.17;;;9.43;;
19049;SDS011;9657;45.940;12.840;2023-03-04T15:01:28;14.97;;;9.10;;
19049;SDS011;9657;45.940;12.840;2023-03-04T15:03:59;15.30;;;8.43;;
19049;SDS011;9657;45.940;12.840;2023-03-04T15:06:28;15.50;;;9.00;;
19049;SDS011;9657;45.940;12.840;2023-03-04T15:08:57;14.70;;;9.70;;
19049;SDS011;9657;45.940;12.840;2023-03-04T15:11:28;18.40;;;9.50;;
19049;SDS011;9657;45.940;12.840;2023-03-04T15:13:57;16.03;;;9.57;;